createdAt,value
2018-12-27T00:08:43.335Z,101654.20
2018-12-27T00:11:13.147Z,101654.20
2018-12-27T00:19:38.113Z,101675.16
2018-12-27T00:22:07.960Z,101664.60
2018-12-27T00:24:37.819Z,101664.66
2018-12-27T00:27:07.653Z,101668.14
2018-12-27T00:29:37.657Z,101651.59
2018-12-27T00:37:43.652Z,101642.90
2018-12-27T00:40:13.264Z,101648.50
2018-12-27T00:43:19.278Z,101656.63
2018-12-27T00:48:38.034Z,101641.36
2018-12-27T00:58:16.985Z,101629.26
2018-12-27T01:04:47.955Z,101628.50
2018-12-27T01:07:17.566Z,101628.50
2018-12-27T01:12:59.191Z,101621.99
2018-12-27T01:15:28.850Z,101620.00
2018-12-27T01:17:58.962Z,101621.00
2018-12-27T01:20:29.166Z,101625.41
2018-12-27T01:29:38.580Z,101616.08
2018-12-27T01:32:08.165Z,101610.35
2018-12-27T01:34:38.064Z,101611.73
2018-12-27T01:37:08.385Z,101608.20
2018-12-27T01:39:37.995Z,101615.98
2018-12-27T01:52:14.772Z,101609.55
2018-12-27T01:54:44.712Z,101615.19
2018-12-27T01:57:14.456Z,101614.36
2018-12-27T01:59:44.630Z,101609.05
2018-12-27T02:02:14.509Z,101616.83
2018-12-27T02:04:44.336Z,101615.12
2018-12-27T02:10:08.398Z,101614.28
2018-12-27T02:12:38.130Z,101616.58
2018-12-27T02:15:08.059Z,101617.88
2018-12-27T02:17:37.866Z,101626.16
2018-12-27T02:23:20.933Z,101616.75
2018-12-27T02:29:01.924Z,101592.49
2018-12-27T02:31:31.742Z,101599.37
2018-12-27T02:37:13.440Z,101602.08
2018-12-27T02:39:43.382Z,101591.52
2018-12-27T02:42:12.971Z,101594.23
2018-12-27T02:44:43.240Z,101591.62
2018-12-27T02:47:13.207Z,101583.84
2018-12-27T02:49:43.323Z,101587.37
2018-12-27T02:52:13.349Z,101586.53
2018-12-27T02:58:10.389Z,101593.66
2018-12-27T03:20:01.090Z,101558.71
2018-12-27T03:22:31.031Z,101561.24
2018-12-27T03:25:00.735Z,101560.38
2018-12-27T03:27:30.872Z,101556.91
2018-12-27T03:36:52.331Z,101563.48
2018-12-27T03:42:34.153Z,101552.41
2018-12-27T03:47:39.846Z,101546.45
2018-12-27T03:50:09.562Z,101546.45
2018-12-27T03:52:59.944Z,101551.20
2018-12-27T03:55:29.619Z,101545.20
2018-12-27T03:57:59.310Z,101536.09
2018-12-27T04:07:13.351Z,101526.10
2018-12-27T04:12:25.649Z,101528.73
2018-12-27T04:14:55.438Z,101521.34
2018-12-27T04:17:24.992Z,101523.16
2018-12-27T04:19:54.768Z,101512.68
2018-12-27T04:22:24.698Z,101487.39
2018-12-27T04:28:08.463Z,101482.20
2018-12-27T04:37:39.242Z,101487.05
2018-12-27T04:43:03.278Z,101488.41
2018-12-27T04:45:53.158Z,101477.87
2018-12-27T04:48:23.865Z,101477.87
2018-12-27T04:50:53.758Z,101472.69
2018-12-27T04:53:23.670Z,101474.44
2018-12-27T04:55:54.275Z,101474.44
2018-12-27T04:58:24.014Z,101472.71
2018-12-27T05:00:53.540Z,101472.71
2018-12-27T05:03:23.355Z,101474.28
2018-12-27T05:05:53.450Z,101464.16
2018-12-27T05:08:22.995Z,101466.36
2018-12-27T05:10:53.473Z,101454.92
2018-12-27T05:13:23.342Z,101466.36
2018-12-27T05:15:52.875Z,101455.81
2018-12-27T05:22:04.404Z,101464.09
2018-12-27T05:24:34.065Z,101466.21
2018-12-27T05:29:39.691Z,101466.70
2018-12-27T05:32:31.852Z,101482.89
2018-12-27T05:35:01.731Z,101475.94
2018-12-27T05:37:31.320Z,101480.68
2018-12-27T05:40:00.850Z,101475.44
2018-12-27T05:42:51.133Z,101470.55
2018-12-27T05:45:59.973Z,101456.43
2018-12-27T05:51:27.948Z,101465.52
2018-12-27T06:00:49.512Z,101466.95
2018-12-27T06:03:19.194Z,101454.70
2018-12-27T06:19:00.801Z,101460.28
2018-12-27T06:21:30.376Z,101460.69
2018-12-27T06:24:00.118Z,101445.84
2018-12-27T06:26:29.923Z,101438.55
2018-12-27T06:28:59.395Z,101438.09
2018-12-27T06:31:49.525Z,101433.34
2018-12-27T06:37:12.489Z,101421.21
2018-12-27T06:40:19.881Z,101418.09
2018-12-27T06:42:49.894Z,101420.73
2018-12-27T07:09:28.877Z,101428.34
2018-12-27T07:11:58.495Z,101440.01
2018-12-27T07:14:48.643Z,101440.01
2018-12-27T07:21:02.237Z,101430.81
2018-12-27T07:23:32.064Z,101430.81
2018-12-27T07:26:22.145Z,101422.95
2018-12-27T07:32:06.179Z,101423.95
2018-12-27T07:34:35.635Z,101423.92
2018-12-27T07:47:12.893Z,101406.92
2018-12-27T07:49:42.536Z,101406.45
2018-12-27T07:55:27.035Z,101419.06
2018-12-27T08:00:58.543Z,101413.05
2018-12-27T08:03:28.295Z,101409.21
2018-12-27T08:05:57.803Z,101415.76
2018-12-27T08:11:39.137Z,101416.31
2018-12-27T08:17:23.994Z,101411.95
2018-12-27T08:19:53.800Z,101407.55
2018-12-27T08:22:23.553Z,101408.38
2018-12-27T08:25:12.287Z,101404.05
2018-12-27T08:28:02.255Z,101404.05
2018-12-27T08:30:32.301Z,101398.80
2018-12-27T08:39:16.675Z,101389.69
2018-12-27T08:41:46.232Z,101385.42
2018-12-27T08:53:30.357Z,101373.72
2018-12-27T08:56:37.759Z,101373.72
2018-12-27T09:02:29.643Z,101371.16
2018-12-27T09:11:27.283Z,101369.49
2018-12-27T09:13:56.926Z,101360.73
2018-12-27T09:16:26.418Z,101362.52
2018-12-27T09:24:40.817Z,101351.62
2018-12-27T09:27:10.837Z,101342.51
2018-12-27T10:14:07.186Z,101343.41
2018-12-27T10:19:30.459Z,101349.55
2018-12-27T10:24:53.248Z,101354.50
2018-12-27T10:38:32.277Z,101341.23
2018-12-27T10:41:02.543Z,101336.88
2018-12-27T10:43:31.999Z,101326.35
2018-12-27T10:52:56.438Z,101321.99
2018-12-27T10:55:25.958Z,101315.92
2018-12-27T11:12:07.138Z,101307.44
2018-12-27T11:14:36.850Z,101311.80
2018-12-27T11:17:06.271Z,101311.80
2018-12-27T11:26:15.315Z,101305.75
2018-12-27T11:29:04.175Z,101292.64
2018-12-27T11:38:24.848Z,101294.48
2018-12-27T11:47:11.028Z,101304.07
2018-12-27T12:06:55.428Z,101283.14
2018-12-27T12:16:04.620Z,101270.81
2018-12-27T12:38:32.840Z,101269.41
2018-12-27T12:47:04.630Z,101280.22
2018-12-27T12:49:34.404Z,101280.22
2018-12-27T12:59:05.220Z,101268.10
2018-12-27T13:21:52.368Z,101285.43
2018-12-27T13:24:21.872Z,101287.59
2018-12-27T13:27:10.655Z,101293.35
2018-12-27T13:29:40.121Z,101288.44
2018-12-27T13:51:26.509Z,101315.30
2018-12-27T13:53:55.981Z,101315.30
2018-12-27T13:56:25.498Z,101309.99
2018-12-27T13:58:55.593Z,101314.72
2018-12-27T14:04:48.550Z,101315.02
2018-12-27T14:07:18.044Z,101317.39
2018-12-27T14:09:47.815Z,101317.39
2018-12-27T14:33:43.901Z,101310.95
2018-12-27T14:36:13.384Z,101310.84
2018-12-27T14:38:42.932Z,101309.16
2018-12-27T14:41:12.859Z,101310.11
2018-12-27T14:43:42.416Z,101302.20
2018-12-27T14:56:20.239Z,101318.81
2018-12-27T15:01:25.407Z,101318.68
2018-12-27T15:07:04.834Z,101326.67
2018-12-27T15:09:34.282Z,101314.34
2018-12-27T15:12:04.159Z,101332.20
2018-12-27T15:14:33.900Z,101330.91
2018-12-27T15:19:57.049Z,101337.86
2018-12-27T15:27:44.807Z,101325.37
2018-12-27T15:30:14.611Z,101338.93
2018-12-27T15:32:44.217Z,101338.00
2018-12-27T15:35:14.261Z,101342.45
2018-12-27T15:40:53.308Z,101352.05
2018-12-27T15:59:56.390Z,101364.11
2018-12-27T16:09:34.974Z,101370.23
2018-12-27T16:12:04.674Z,101371.91
2018-12-27T16:21:07.786Z,101374.12
2018-12-27T16:23:37.402Z,101377.56
2018-12-27T16:54:28.449Z,101384.67
2018-12-27T17:03:50.633Z,101390.60
2018-12-27T17:06:20.312Z,101384.37
2018-12-27T17:18:51.614Z,101382.02
2018-12-27T18:03:00.301Z,101418.61
2018-12-27T18:24:15.715Z,101428.03
2018-12-27T18:46:40.010Z,101434.04
2018-12-27T19:05:24.289Z,101433.43
2018-12-27T19:27:39.006Z,101449.08
2018-12-27T19:42:50.881Z,101462.27
2018-12-27T19:55:45.285Z,101460.00
2018-12-27T20:18:50.601Z,101459.03
2018-12-27T20:57:30.554Z,100978.16
2018-12-27T21:00:00.279Z,101465.91
2018-12-27T21:02:29.863Z,101463.28
2018-12-27T21:09:10.509Z,101460.59
2018-12-27T21:11:40.228Z,101464.80
2018-12-27T21:14:09.973Z,101464.80
2018-12-27T21:16:40.390Z,101464.37
2018-12-27T21:19:10.275Z,101462.59
2018-12-27T21:21:40.062Z,101462.59
2018-12-27T21:24:10.041Z,101458.57
2018-12-27T21:26:39.942Z,101467.40
2018-12-27T21:29:10.645Z,101467.40
2018-12-27T21:31:40.711Z,101461.26
2018-12-27T21:34:10.179Z,101458.03
2018-12-27T21:36:39.770Z,101453.67
2018-12-27T21:39:09.872Z,101456.55
2018-12-27T21:41:39.515Z,101456.55
2018-12-27T21:44:09.291Z,101461.53
2018-12-27T21:46:39.617Z,101372.37
2018-12-27T21:49:09.505Z,101372.37
2018-12-27T21:51:39.162Z,101467.89
2018-12-27T21:54:08.905Z,101463.97
2018-12-27T21:56:38.699Z,101475.34
2018-12-27T21:59:08.634Z,101469.64
2018-12-27T22:01:38.456Z,101470.52
2018-12-27T22:04:08.515Z,101472.26
2018-12-27T22:06:38.264Z,101467.94
2018-12-27T22:09:08.619Z,101467.75
2018-12-27T22:11:38.573Z,101473.06
2018-12-27T22:14:08.132Z,101470.45
2018-12-27T22:16:37.990Z,101470.45
2018-12-27T22:19:07.934Z,101478.22
2018-12-27T22:21:37.819Z,101469.90
2018-12-27T22:24:07.833Z,101464.96
2018-12-27T22:26:37.717Z,101464.96
2018-12-27T22:29:07.463Z,101487.23
2018-12-27T22:31:37.300Z,101483.79
2018-12-27T22:34:07.265Z,101488.88
2018-12-27T22:36:37.234Z,101488.88
2018-12-27T22:39:08.817Z,101485.42
2018-12-27T22:41:38.420Z,101489.20
2018-12-27T22:44:08.463Z,101489.20
2018-12-27T22:46:38.375Z,101490.00
2018-12-27T22:49:08.431Z,101488.77
2018-12-27T22:51:38.293Z,101479.13
2018-12-27T22:54:08.235Z,101479.13
2018-12-27T22:56:38.093Z,101483.16
2018-12-27T22:59:07.867Z,101483.16
2018-12-27T23:01:37.951Z,101489.69
2018-12-27T23:04:08.051Z,101493.59
2018-12-27T23:06:38.337Z,101496.69
2018-12-27T23:09:08.425Z,101494.58
2018-12-27T23:11:38.110Z,101498.91
2018-12-27T23:14:07.903Z,101503.80
2018-12-27T23:16:37.765Z,101503.80
2018-12-27T23:19:07.461Z,101503.64
2018-12-27T23:21:37.378Z,101494.96
2018-12-27T23:24:07.141Z,101506.27
2018-12-27T23:26:36.967Z,101495.76
2018-12-27T23:29:06.562Z,101497.90
2018-12-27T23:31:36.069Z,101502.81
2018-12-27T23:34:06.002Z,101495.12
2018-12-27T23:36:35.992Z,101498.17
2018-12-27T23:39:07.520Z,101498.64
2018-12-27T23:41:37.616Z,101497.77
2018-12-27T23:44:07.756Z,101504.78
2018-12-27T23:46:37.974Z,101503.40
2018-12-27T23:49:11.142Z,101507.23
2018-12-27T23:51:41.658Z,101509.55
2018-12-27T23:54:11.375Z,101506.27
2018-12-27T23:56:41.344Z,101506.27
2018-12-27T23:59:11.320Z,101503.09
